createdAt,value
2022-10-05T17:52:44.910Z,5.20
2022-10-05T17:58:26.181Z,8.93
2022-10-05T18:03:51.749Z,15.43
2022-10-05T18:09:22.604Z,22.42
2022-10-05T18:14:58.892Z,16.77
2022-10-05T18:20:29.742Z,20.40
2022-10-05T18:31:52.698Z,13.63
2022-10-05T18:37:31.796Z,5.45
2022-10-05T18:43:19.005Z,4.50
2022-10-05T18:49:18.224Z,2.42
2022-10-05T18:54:51.424Z,8.48
2022-10-05T19:00:22.463Z,3.17
2022-10-05T19:06:13.202Z,1.38
2022-10-05T19:11:52.161Z,2.07
2022-10-05T19:17:40.917Z,2.53
2022-10-05T19:23:22.292Z,6.70
2022-10-05T19:29:27.364Z,3.28
2022-10-05T19:35:26.273Z,2.45
2022-10-05T19:41:06.136Z,1.30
2022-10-05T19:47:00.724Z,1.30
2022-10-05T19:52:47.684Z,2.20
2022-10-05T19:58:25.190Z,2.35
2022-10-05T20:03:48.070Z,5.03
2022-10-05T20:09:20.943Z,4.13
2022-10-05T20:15:05.411Z,2.63
2022-10-05T20:20:45.821Z,2.88
2022-10-05T20:26:58.680Z,2.55
2022-10-05T20:32:20.221Z,1.58
2022-10-05T20:37:42.976Z,3.03
2022-10-05T20:43:04.539Z,2.08
2022-10-05T20:48:26.469Z,2.50
2022-10-05T20:53:48.404Z,2.55
2022-10-05T20:59:09.915Z,4.30
2022-10-05T21:04:40.819Z,14.55
2022-10-05T21:10:03.932Z,13.95
2022-10-05T21:15:25.898Z,15.80
2022-10-05T21:20:50.195Z,14.23
2022-10-05T21:26:12.279Z,14.52
2022-10-05T21:31:34.285Z,11.82
2022-10-05T21:36:55.782Z,10.10
2022-10-05T21:42:17.303Z,8.82
2022-10-05T21:47:39.313Z,8.50
2022-10-05T21:53:03.274Z,4.68
2022-10-05T21:58:27.614Z,3.00
2022-10-05T22:16:05.547Z,4.28
2022-10-05T22:21:26.889Z,2.25
2022-10-05T22:26:51.779Z,2.25
2022-10-05T22:32:13.386Z,2.90
2022-10-05T22:37:38.129Z,2.40
2022-10-05T22:42:59.687Z,7.60
2022-10-05T22:48:21.363Z,4.80
2022-10-05T22:53:43.069Z,9.10
2022-10-05T22:59:04.791Z,13.68
2022-10-05T23:04:26.346Z,13.32
2022-10-05T23:09:48.126Z,18.15
2022-10-05T23:15:11.135Z,11.93
2022-10-05T23:20:32.736Z,17.25
2022-10-05T23:26:00.315Z,12.60
2022-10-05T23:31:24.455Z,13.73
2022-10-05T23:36:45.850Z,14.13
2022-10-05T23:42:07.498Z,13.95
2022-10-05T23:47:29.145Z,21.30
2022-10-05T23:52:50.665Z,10.95
2022-10-05T23:58:12.696Z,13.82
